sensor_id;sensor_type;location;lat;lon;timestamp;temperature;humidity
54846;DHT22;53889;50.084;8.646;2022-12-18T00:00:09;-6.70;99.90
54846;DHT22;53889;50.084;8.646;2022-12-18T00:02:43;-6.60;99.90
54846;DHT22;53889;50.084;8.646;2022-12-18T00:05:09;-6.60;99.90
54846;DHT22;53889;50.084;8.646;2022-12-18T00:07:36;-6.60;99.90
54846;DHT22;53889;50.084;8.646;2022-12-18T00:10:05;-6.70;99.90
54846;DHT22;53889;50.084;8.646;2022-12-18T00:12:31;-6.70;99.90
54846;DHT22;53889;50.084;8.646;2022-12-18T00:14:58;-6.60;99.90
54846;DHT22;53889;50.084;8.646;2022-12-18T00:17:26;-6.70;99.90
54846;DHT22;53889;50.084;8.646;2022-12-18T00:19:53;-6.80;99.90
54846;DHT22;53889;50.084;8.646;2022-12-18T00:22:20;-6.70;99.90
54846;DHT22;53889;50.084;8.646;2022-12-18T00:24:47;-6.80;99.90
54846;DHT22;53889;50.084;8.646;2022-12-18T00:27:14;-6.70;99.90
54846;DHT22;53889;50.084;8.646;2022-12-18T00:29:41;-6.70;99.90
54846;DHT22;53889;50.084;8.646;2022-12-18T00:32:07;-6.70;99.90
54846;DHT22;53889;50.084;8.646;2022-12-18T00:34:36;-6.80;99.90
54846;DHT22;53889;50.084;8.646;2022-12-18T00:37:02;-6.50;99.90
54846;DHT22;53889;50.084;8.646;2022-12-18T00:39:29;-6.90;99.90
54846;DHT22;53889;50.084;8.646;2022-12-18T00:41:56;-6.90;99.90
54846;DHT22;53889;50.084;8.646;2022-12-18T00:44:40;-6.90;99.90
54846;DHT22;53889;50.084;8.646;2022-12-18T00:47:07;-6.80;99.90
54846;DHT22;53889;50.084;8.646;2022-12-18T00:49:33;-6.90;99.90
54846;DHT22;53889;50.084;8.646;2022-12-18T00:52:01;-7.00;99.90
54846;DHT22;53889;50.084;8.646;2022-12-18T00:54:28;-7.00;99.90
54846;DHT22;53889;50.084;8.646;2022-12-18T00:56:55;-7.00;99.90
54846;DHT22;53889;50.084;8.646;2022-12-18T00:59:22;-7.00;99.90
54846;DHT22;53889;50.084;8.646;2022-12-18T01:01:49;-5.70;99.90
54846;DHT22;53889;50.084;8.646;2022-12-18T01:04:16;-7.00;99.90
54846;DHT22;53889;50.084;8.646;2022-12-18T01:06:44;-7.00;99.90
54846;DHT22;53889;50.084;8.646;2022-12-18T01:09:13;-7.00;99.90
54846;DHT22;53889;50.084;8.646;2022-12-18T01:11:39;-6.90;99.90
54846;DHT22;53889;50.084;8.646;2022-12-18T01:14:06;-7.00;99.90
54846;DHT22;53889;50.084;8.646;2022-12-18T01:16:33;-6.90;99.90
54846;DHT22;53889;50.084;8.646;2022-12-18T01:19:00;-6.90;99.90
54846;DHT22;53889;50.084;8.646;2022-12-18T01:21:27;-6.90;99.90
54846;DHT22;53889;50.084;8.646;2022-12-18T01:23:55;-7.00;99.90
54846;DHT22;53889;50.084;8.646;2022-12-18T01:26:24;-7.00;99.90
54846;DHT22;53889;50.084;8.646;2022-12-18T01:28:54;-7.00;99.90
54846;DHT22;53889;50.084;8.646;2022-12-18T01:31:24;-6.90;99.90
54846;DHT22;53889;50.084;8.646;2022-12-18T01:33:52;-6.90;99.90
54846;DHT22;53889;50.084;8.646;2022-12-18T01:36:21;-6.90;99.90
54846;DHT22;53889;50.084;8.646;2022-12-18T01:38:49;-6.90;99.90
54846;DHT22;53889;50.084;8.646;2022-12-18T01:41:19;-6.90;99.90
54846;DHT22;53889;50.084;8.646;2022-12-18T01:43:51;-6.90;99.90
54846;DHT22;53889;50.084;8.646;2022-12-18T01:46:19;-6.90;99.90
54846;DHT22;53889;50.084;8.646;2022-12-18T01:48:48;-6.90;99.90
54846;DHT22;53889;50.084;8.646;2022-12-18T01:51:16;-6.90;99.90
54846;DHT22;53889;50.084;8.646;2022-12-18T01:53:44;-6.90;99.90
54846;DHT22;53889;50.084;8.646;2022-12-18T01:56:16;-6.90;99.90
54846;DHT22;53889;50.084;8.646;2022-12-18T01:58:52;-6.90;99.90
54846;DHT22;53889;50.084;8.646;2022-12-18T02:01:20;-6.90;99.90
54846;DHT22;53889;50.084;8.646;2022-12-18T02:03:47;-6.90;99.90
54846;DHT22;53889;50.084;8.646;2022-12-18T02:06:18;-6.90;99.90
54846;DHT22;53889;50.084;8.646;2022-12-18T02:08:58;-6.90;99.90
54846;DHT22;53889;50.084;8.646;2022-12-18T02:11:37;-6.90;99.90
54846;DHT22;53889;50.084;8.646;2022-12-18T02:14:12;-6.90;99.90
54846;DHT22;53889;50.084;8.646;2022-12-18T02:16:45;-6.90;99.90
54846;DHT22;53889;50.084;8.646;2022-12-18T02:19:27;-6.90;99.90
54846;DHT22;53889;50.084;8.646;2022-12-18T02:22:04;-6.90;99.90
54846;DHT22;53889;50.084;8.646;2022-12-18T02:24:37;-6.90;99.90
54846;DHT22;53889;50.084;8.646;2022-12-18T02:27:08;-6.90;99.90
54846;DHT22;53889;50.084;8.646;2022-12-18T02:29:39;-7.00;99.90
54846;DHT22;53889;50.084;8.646;2022-12-18T02:32:11;-6.90;99.90
54846;DHT22;53889;50.084;8.646;2022-12-18T02:34:41;-7.00;99.90
54846;DHT22;53889;50.084;8.646;2022-12-18T02:37:15;-7.00;99.90
54846;DHT22;53889;50.084;8.646;2022-12-18T02:39:46;-7.00;99.90
54846;DHT22;53889;50.084;8.646;2022-12-18T02:42:16;-7.10;99.90
54846;DHT22;53889;50.084;8.646;2022-12-18T02:44:45;-7.10;99.90
54846;DHT22;53889;50.084;8.646;2022-12-18T02:47:17;-7.10;99.90
54846;DHT22;53889;50.084;8.646;2022-12-18T02:49:53;-7.10;99.90
54846;DHT22;53889;50.084;8.646;2022-12-18T02:52:30;-7.00;99.90
54846;DHT22;53889;50.084;8.646;2022-12-18T02:55:13;-7.00;99.90
54846;DHT22;53889;50.084;8.646;2022-12-18T02:57:55;-7.00;99.90
54846;DHT22;53889;50.084;8.646;2022-12-18T03:00:30;-7.00;99.90
54846;DHT22;53889;50.084;8.646;2022-12-18T03:03:01;-7.00;99.90
54846;DHT22;53889;50.084;8.646;2022-12-18T03:05:33;-7.00;99.90
54846;DHT22;53889;50.084;8.646;2022-12-18T03:08:04;-7.00;99.90
54846;DHT22;53889;50.084;8.646;2022-12-18T03:10:39;-6.90;99.90
54846;DHT22;53889;50.084;8.646;2022-12-18T03:13:13;-6.90;99.90
54846;DHT22;53889;50.084;8.646;2022-12-18T03:15:45;-6.80;99.90
54846;DHT22;53889;50.084;8.646;2022-12-18T03:18:17;-6.80;99.90
54846;DHT22;53889;50.084;8.646;2022-12-18T03:20:46;-6.80;99.90
54846;DHT22;53889;50.084;8.646;2022-12-18T03:23:22;-6.80;99.90
54846;DHT22;53889;50.084;8.646;2022-12-18T03:25:52;-6.90;99.90
54846;DHT22;53889;50.084;8.646;2022-12-18T03:28:23;-6.80;99.90
54846;DHT22;53889;50.084;8.646;2022-12-18T03:30:59;-6.80;99.90
54846;DHT22;53889;50.084;8.646;2022-12-18T03:33:30;-6.90;99.90
54846;DHT22;53889;50.084;8.646;2022-12-18T03:35:57;-7.00;99.90
54846;DHT22;53889;50.084;8.646;2022-12-18T03:38:23;-7.00;99.90
54846;DHT22;53889;50.084;8.646;2022-12-18T03:41:11;-7.00;99.90
54846;DHT22;53889;50.084;8.646;2022-12-18T03:44:10;-7.00;99.90
54846;DHT22;53889;50.084;8.646;2022-12-18T03:46:46;-7.30;99.90
54846;DHT22;53889;50.084;8.646;2022-12-18T03:49:22;-7.00;99.90
54846;DHT22;53889;50.084;8.646;2022-12-18T03:51:55;-7.00;99.90
54846;DHT22;53889;50.084;8.646;2022-12-18T03:54:24;-7.00;99.90
54846;DHT22;53889;50.084;8.646;2022-12-18T03:56:59;-7.10;99.90
54846;DHT22;53889;50.084;8.646;2022-12-18T03:59:31;-5.80;99.90
54846;DHT22;53889;50.084;8.646;2022-12-18T04:01:58;-7.10;99.90
54846;DHT22;53889;50.084;8.646;2022-12-18T04:04:27;-7.10;99.90
54846;DHT22;53889;50.084;8.646;2022-12-18T04:06:58;-7.00;99.90
54846;DHT22;53889;50.084;8.646;2022-12-18T04:09:27;-7.00;99.90
54846;DHT22;53889;50.084;8.646;2022-12-18T04:11:57;-7.00;99.90
54846;DHT22;53889;50.084;8.646;2022-12-18T04:14:24;-7.00;99.90
54846;DHT22;53889;50.084;8.646;2022-12-18T04:16:56;-7.00;99.90
54846;DHT22;53889;50.084;8.646;2022-12-18T04:19:28;-7.00;99.90
54846;DHT22;53889;50.084;8.646;2022-12-18T04:21:55;-7.00;99.90
54846;DHT22;53889;50.084;8.646;2022-12-18T04:24:22;-7.00;99.90
54846;DHT22;53889;50.084;8.646;2022-12-18T04:27:00;-7.10;99.90
54846;DHT22;53889;50.084;8.646;2022-12-18T04:29:32;-7.10;99.90
54846;DHT22;53889;50.084;8.646;2022-12-18T04:32:00;-7.10;99.90
54846;DHT22;53889;50.084;8.646;2022-12-18T04:34:28;-7.10;99.90
54846;DHT22;53889;50.084;8.646;2022-12-18T04:36:56;-7.10;99.90
54846;DHT22;53889;50.084;8.646;2022-12-18T04:39:24;-7.10;99.90
54846;DHT22;53889;50.084;8.646;2022-12-18T04:41:54;-7.10;99.90
54846;DHT22;53889;50.084;8.646;2022-12-18T04:44:20;-7.10;99.90
54846;DHT22;53889;50.084;8.646;2022-12-18T04:46:47;-8.10;99.90
54846;DHT22;53889;50.084;8.646;2022-12-18T04:49:15;-7.20;99.90
54846;DHT22;53889;50.084;8.646;2022-12-18T04:51:42;-7.10;99.90
54846;DHT22;53889;50.084;8.646;2022-12-18T04:54:08;-7.10;99.90
54846;DHT22;53889;50.084;8.646;2022-12-18T04:56:35;-7.20;99.90
54846;DHT22;53889;50.084;8.646;2022-12-18T04:59:02;-7.10;99.90
54846;DHT22;53889;50.084;8.646;2022-12-18T05:01:29;-7.10;99.90
54846;DHT22;53889;50.084;8.646;2022-12-18T05:03:55;-7.10;99.90
54846;DHT22;53889;50.084;8.646;2022-12-18T05:06:24;-7.10;99.90
54846;DHT22;53889;50.084;8.646;2022-12-18T05:08:50;-7.10;99.90
54846;DHT22;53889;50.084;8.646;2022-12-18T05:11:17;-7.10;99.90
54846;DHT22;53889;50.084;8.646;2022-12-18T05:13:44;-7.10;99.90
54846;DHT22;53889;50.084;8.646;2022-12-18T05:16:12;-7.10;99.90
54846;DHT22;53889;50.084;8.646;2022-12-18T05:18:39;-7.10;99.90
54846;DHT22;53889;50.084;8.646;2022-12-18T05:21:06;-7.10;99.90
54846;DHT22;53889;50.084;8.646;2022-12-18T05:23:34;-7.10;99.90
54846;DHT22;53889;50.084;8.646;2022-12-18T05:26:02;-7.10;99.90
54846;DHT22;53889;50.084;8.646;2022-12-18T05:28:31;-7.10;99.90
54846;DHT22;53889;50.084;8.646;2022-12-18T05:31:00;-7.10;99.90
54846;DHT22;53889;50.084;8.646;2022-12-18T05:33:29;-7.10;99.90
54846;DHT22;53889;50.084;8.646;2022-12-18T05:35:58;-7.00;99.90
54846;DHT22;53889;50.084;8.646;2022-12-18T05:38:26;-7.10;99.90
54846;DHT22;53889;50.084;8.646;2022-12-18T05:40:55;-7.20;99.90
54846;DHT22;53889;50.084;8.646;2022-12-18T05:43:23;-7.10;99.90
54846;DHT22;53889;50.084;8.646;2022-12-18T05:45:51;-7.10;99.90
54846;DHT22;53889;50.084;8.646;2022-12-18T05:48:18;-7.10;99.90
54846;DHT22;53889;50.084;8.646;2022-12-18T05:50:46;-7.10;99.90
54846;DHT22;53889;50.084;8.646;2022-12-18T05:53:15;-7.10;99.90
54846;DHT22;53889;50.084;8.646;2022-12-18T05:55:43;-7.10;99.90
54846;DHT22;53889;50.084;8.646;2022-12-18T05:58:12;-7.10;99.90
54846;DHT22;53889;50.084;8.646;2022-12-18T06:00:41;-7.20;99.90
54846;DHT22;53889;50.084;8.646;2022-12-18T06:03:09;-7.20;99.90
54846;DHT22;53889;50.084;8.646;2022-12-18T06:05:38;-7.20;99.90
54846;DHT22;53889;50.084;8.646;2022-12-18T06:08:05;-6.90;99.90
54846;DHT22;53889;50.084;8.646;2022-12-18T06:10:32;-7.20;99.90
54846;DHT22;53889;50.084;8.646;2022-12-18T06:12:59;-7.20;99.90
54846;DHT22;53889;50.084;8.646;2022-12-18T06:15:27;-7.20;99.90
54846;DHT22;53889;50.084;8.646;2022-12-18T06:17:54;-7.20;99.90
54846;DHT22;53889;50.084;8.646;2022-12-18T06:20:20;-7.20;99.90
54846;DHT22;53889;50.084;8.646;2022-12-18T06:22:47;-7.30;99.90
54846;DHT22;53889;50.084;8.646;2022-12-18T06:25:14;-7.20;99.90
54846;DHT22;53889;50.084;8.646;2022-12-18T06:27:42;-7.20;99.90
54846;DHT22;53889;50.084;8.646;2022-12-18T06:30:10;-7.20;99.90
54846;DHT22;53889;50.084;8.646;2022-12-18T06:32:39;-7.20;99.90
54846;DHT22;53889;50.084;8.646;2022-12-18T06:35:06;-7.30;99.90
54846;DHT22;53889;50.084;8.646;2022-12-18T06:37:33;-7.20;99.90
54846;DHT22;53889;50.084;8.646;2022-12-18T06:40:00;-7.20;99.90
54846;DHT22;53889;50.084;8.646;2022-12-18T06:42:28;-7.20;99.90
54846;DHT22;53889;50.084;8.646;2022-12-18T06:44:55;-7.30;99.90
54846;DHT22;53889;50.084;8.646;2022-12-18T06:47:21;-7.30;99.90
54846;DHT22;53889;50.084;8.646;2022-12-18T06:49:50;-7.40;99.90
54846;DHT22;53889;50.084;8.646;2022-12-18T06:52:17;-7.40;99.90
54846;DHT22;53889;50.084;8.646;2022-12-18T06:54:43;-7.40;99.90
54846;DHT22;53889;50.084;8.646;2022-12-18T06:57:10;-7.40;99.90
54846;DHT22;53889;50.084;8.646;2022-12-18T06:59:37;-7.50;99.90
54846;DHT22;53889;50.084;8.646;2022-12-18T07:02:04;-7.50;99.90
54846;DHT22;53889;50.084;8.646;2022-12-18T07:04:31;-7.50;99.90
54846;DHT22;53889;50.084;8.646;2022-12-18T07:06:59;-7.50;99.90
54846;DHT22;53889;50.084;8.646;2022-12-18T07:09:26;-7.50;99.90
54846;DHT22;53889;50.084;8.646;2022-12-18T07:11:53;-7.50;99.90
54846;DHT22;53889;50.084;8.646;2022-12-18T07:14:20;-7.40;99.90
54846;DHT22;53889;50.084;8.646;2022-12-18T07:16:47;-7.40;99.90
54846;DHT22;53889;50.084;8.646;2022-12-18T07:19:14;-7.40;99.90
54846;DHT22;53889;50.084;8.646;2022-12-18T07:21:40;-7.40;99.90
54846;DHT22;53889;50.084;8.646;2022-12-18T07:24:09;-7.40;99.90
54846;DHT22;53889;50.084;8.646;2022-12-18T07:26:36;-7.30;99.90
54846;DHT22;53889;50.084;8.646;2022-12-18T07:29:02;-7.30;99.90
54846;DHT22;53889;50.084;8.646;2022-12-18T07:31:29;-7.30;99.90
54846;DHT22;53889;50.084;8.646;2022-12-18T07:33:56;-7.30;99.90
54846;DHT22;53889;50.084;8.646;2022-12-18T07:36:22;-7.30;99.90
54846;DHT22;53889;50.084;8.646;2022-12-18T07:38:50;-7.20;99.90
54846;DHT22;53889;50.084;8.646;2022-12-18T07:41:19;-7.30;99.90
54846;DHT22;53889;50.084;8.646;2022-12-18T07:43:46;-7.30;99.90
54846;DHT22;53889;50.084;8.646;2022-12-18T07:46:13;-7.30;99.90
54846;DHT22;53889;50.084;8.646;2022-12-18T07:48:41;-7.20;99.90
54846;DHT22;53889;50.084;8.646;2022-12-18T07:51:09;-7.10;99.90
54846;DHT22;53889;50.084;8.646;2022-12-18T07:53:37;-7.10;99.90
54846;DHT22;53889;50.084;8.646;2022-12-18T07:56:06;-7.10;99.90
54846;DHT22;53889;50.084;8.646;2022-12-18T07:58:36;-7.00;99.90
54846;DHT22;53889;50.084;8.646;2022-12-18T08:01:03;-6.90;99.90
54846;DHT22;53889;50.084;8.646;2022-12-18T08:03:31;-6.90;99.90
54846;DHT22;53889;50.084;8.646;2022-12-18T08:05:59;-6.90;99.90
54846;DHT22;53889;50.084;8.646;2022-12-18T08:08:26;-6.80;99.90
54846;DHT22;53889;50.084;8.646;2022-12-18T08:10:53;-6.80;99.90
54846;DHT22;53889;50.084;8.646;2022-12-18T08:13:19;-6.80;99.90
54846;DHT22;53889;50.084;8.646;2022-12-18T08:15:55;-6.80;99.90
54846;DHT22;53889;50.084;8.646;2022-12-18T08:18:22;-6.70;99.90
54846;DHT22;53889;50.084;8.646;2022-12-18T08:20:49;-6.70;99.90
54846;DHT22;53889;50.084;8.646;2022-12-18T08:23:16;-6.60;99.90
54846;DHT22;53889;50.084;8.646;2022-12-18T08:25:42;-6.60;99.90
54846;DHT22;53889;50.084;8.646;2022-12-18T08:28:10;-6.50;99.90
54846;DHT22;53889;50.084;8.646;2022-12-18T08:30:36;-6.50;99.90
54846;DHT22;53889;50.084;8.646;2022-12-18T08:33:05;-6.50;99.90
54846;DHT22;53889;50.084;8.646;2022-12-18T08:35:35;-6.40;99.90
54846;DHT22;53889;50.084;8.646;2022-12-18T08:38:02;-6.30;99.90
54846;DHT22;53889;50.084;8.646;2022-12-18T08:40:29;-6.30;99.90
54846;DHT22;53889;50.084;8.646;2022-12-18T08:42:55;-6.30;99.90
54846;DHT22;53889;50.084;8.646;2022-12-18T08:45:40;-6.20;99.90
54846;DHT22;53889;50.084;8.646;2022-12-18T08:48:08;-6.10;99.90
54846;DHT22;53889;50.084;8.646;2022-12-18T08:50:34;-6.10;99.90
54846;DHT22;53889;50.084;8.646;2022-12-18T08:53:01;-6.00;99.90
54846;DHT22;53889;50.084;8.646;2022-12-18T08:55:28;-6.00;99.90
54846;DHT22;53889;50.084;8.646;2022-12-18T08:57:55;-6.00;99.90
54846;DHT22;53889;50.084;8.646;2022-12-18T09:00:21;-5.80;99.90
54846;DHT22;53889;50.084;8.646;2022-12-18T09:02:48;-5.80;99.90
54846;DHT22;53889;50.084;8.646;2022-12-18T09:05:16;-5.80;99.90
54846;DHT22;53889;50.084;8.646;2022-12-18T09:07:43;-5.70;99.90
54846;DHT22;53889;50.084;8.646;2022-12-18T09:10:10;-5.60;99.90
54846;DHT22;53889;50.084;8.646;2022-12-18T09:12:36;-5.60;99.90
54846;DHT22;53889;50.084;8.646;2022-12-18T09:15:04;-5.50;99.90
54846;DHT22;53889;50.084;8.646;2022-12-18T09:17:31;-5.40;99.90
54846;DHT22;53889;50.084;8.646;2022-12-18T09:19:57;-5.30;99.90
54846;DHT22;53889;50.084;8.646;2022-12-18T09:22:25;-5.30;99.90
54846;DHT22;53889;50.084;8.646;2022-12-18T09:24:52;-5.20;99.90
54846;DHT22;53889;50.084;8.646;2022-12-18T09:27:20;-5.10;99.90
54846;DHT22;53889;50.084;8.646;2022-12-18T09:29:47;-5.20;99.90
54846;DHT22;53889;50.084;8.646;2022-12-18T09:32:15;-5.10;99.90
54846;DHT22;53889;50.084;8.646;2022-12-18T09:34:41;-5.10;99.90
54846;DHT22;53889;50.084;8.646;2022-12-18T09:37:08;-5.00;99.90
54846;DHT22;53889;50.084;8.646;2022-12-18T09:39:37;-5.00;99.90
54846;DHT22;53889;50.084;8.646;2022-12-18T09:42:04;-4.80;99.90
54846;DHT22;53889;50.084;8.646;2022-12-18T09:44:34;-4.80;99.90
54846;DHT22;53889;50.084;8.646;2022-12-18T09:47:09;-4.80;99.90
54846;DHT22;53889;50.084;8.646;2022-12-18T09:49:40;-4.90;99.90
54846;DHT22;53889;50.084;8.646;2022-12-18T09:52:13;-4.80;99.90
54846;DHT22;53889;50.084;8.646;2022-12-18T09:54:44;-4.70;99.90
54846;DHT22;53889;50.084;8.646;2022-12-18T09:57:15;-4.60;99.90
54846;DHT22;53889;50.084;8.646;2022-12-18T09:59:44;-4.50;99.90
54846;DHT22;53889;50.084;8.646;2022-12-18T10:02:18;-4.50;99.90
54846;DHT22;53889;50.084;8.646;2022-12-18T10:05:00;-4.50;99.90
54846;DHT22;53889;50.084;8.646;2022-12-18T10:07:37;-4.40;99.90
54846;DHT22;53889;50.084;8.646;2022-12-18T10:10:13;-4.10;99.90
54846;DHT22;53889;50.084;8.646;2022-12-18T10:12:47;-4.20;99.90
54846;DHT22;53889;50.084;8.646;2022-12-18T10:15:22;-4.20;99.90
54846;DHT22;53889;50.084;8.646;2022-12-18T10:17:55;-4.10;99.90
54846;DHT22;53889;50.084;8.646;2022-12-18T10:20:29;-4.20;99.90
54846;DHT22;53889;50.084;8.646;2022-12-18T10:23:03;-4.10;99.90
54846;DHT22;53889;50.084;8.646;2022-12-18T10:25:38;-4.20;99.90
54846;DHT22;53889;50.084;8.646;2022-12-18T10:28:12;-4.30;99.90
54846;DHT22;53889;50.084;8.646;2022-12-18T10:30:40;-4.30;99.90
54846;DHT22;53889;50.084;8.646;2022-12-18T10:33:10;-4.50;99.90
54846;DHT22;53889;50.084;8.646;2022-12-18T10:35:41;-4.60;99.90
54846;DHT22;53889;50.084;8.646;2022-12-18T10:38:21;-4.40;99.90
54846;DHT22;53889;50.084;8.646;2022-12-18T10:40:52;-4.20;99.90
54846;DHT22;53889;50.084;8.646;2022-12-18T10:43:21;-4.20;99.90
54846;DHT22;53889;50.084;8.646;2022-12-18T10:46:12;-4.20;99.90
54846;DHT22;53889;50.084;8.646;2022-12-18T10:48:49;-4.20;99.90
54846;DHT22;53889;50.084;8.646;2022-12-18T10:51:21;-4.10;99.90
54846;DHT22;53889;50.084;8.646;2022-12-18T10:53:53;-4.10;99.90
54846;DHT22;53889;50.084;8.646;2022-12-18T10:56:24;-4.00;99.90
54846;DHT22;53889;50.084;8.646;2022-12-18T10:58:56;-3.80;99.90
54846;DHT22;53889;50.084;8.646;2022-12-18T11:01:23;-3.70;99.90
54846;DHT22;53889;50.084;8.646;2022-12-18T11:04:00;-3.90;99.90
54846;DHT22;53889;50.084;8.646;2022-12-18T11:06:27;-3.80;99.90
54846;DHT22;53889;50.084;8.646;2022-12-18T11:08:59;-3.60;99.90
54846;DHT22;53889;50.084;8.646;2022-12-18T11:11:28;-3.70;99.90
54846;DHT22;53889;50.084;8.646;2022-12-18T11:14:01;-4.00;99.90
54846;DHT22;53889;50.084;8.646;2022-12-18T11:16:32;-3.80;99.90
54846;DHT22;53889;50.084;8.646;2022-12-18T11:19:17;-3.90;99.90
54846;DHT22;53889;50.084;8.646;2022-12-18T11:21:47;-3.80;99.90
54846;DHT22;53889;50.084;8.646;2022-12-18T11:24:20;-3.60;99.90
54846;DHT22;53889;50.084;8.646;2022-12-18T11:26:50;-3.50;99.90
54846;DHT22;53889;50.084;8.646;2022-12-18T11:29:19;-3.60;99.90
54846;DHT22;53889;50.084;8.646;2022-12-18T11:31:49;-3.40;99.90
54846;DHT22;53889;50.084;8.646;2022-12-18T11:34:20;-3.50;99.90
54846;DHT22;53889;50.084;8.646;2022-12-18T11:36:49;-3.40;99.90
54846;DHT22;53889;50.084;8.646;2022-12-18T11:39:19;-3.40;99.90
54846;DHT22;53889;50.084;8.646;2022-12-18T11:41:53;-3.60;99.90
54846;DHT22;53889;50.084;8.646;2022-12-18T11:44:41;-3.60;99.90
54846;DHT22;53889;50.084;8.646;2022-12-18T11:47:15;-3.60;99.90
54846;DHT22;53889;50.084;8.646;2022-12-18T11:49:47;-3.70;99.90
54846;DHT22;53889;50.084;8.646;2022-12-18T11:52:18;-3.70;99.90
54846;DHT22;53889;50.084;8.646;2022-12-18T11:54:45;-3.80;99.90
54846;DHT22;53889;50.084;8.646;2022-12-18T11:57:24;-3.60;99.90
54846;DHT22;53889;50.084;8.646;2022-12-18T11:59:57;-3.70;99.90
54846;DHT22;53889;50.084;8.646;2022-12-18T12:02:47;-3.60;99.90
54846;DHT22;53889;50.084;8.646;2022-12-18T12:05:31;-3.50;99.90
54846;DHT22;53889;50.084;8.646;2022-12-18T12:08:04;-3.60;99.90
54846;DHT22;53889;50.084;8.646;2022-12-18T12:10:41;-3.40;99.90
54846;DHT22;53889;50.084;8.646;2022-12-18T12:13:23;-3.30;99.90
54846;DHT22;53889;50.084;8.646;2022-12-18T12:15:58;-3.10;99.90
54846;DHT22;53889;50.084;8.646;2022-12-18T12:18:40;-3.10;99.90
54846;DHT22;53889;50.084;8.646;2022-12-18T12:21:14;-3.00;99.90
54846;DHT22;53889;50.084;8.646;2022-12-18T12:23:45;-2.90;99.90
54846;DHT22;53889;50.084;8.646;2022-12-18T12:26:17;-3.10;99.90
54846;DHT22;53889;50.084;8.646;2022-12-18T12:29:00;-3.30;99.90
54846;DHT22;53889;50.084;8.646;2022-12-18T12:31:41;-3.30;99.90
54846;DHT22;53889;50.084;8.646;2022-12-18T12:34:17;-3.30;99.90
54846;DHT22;53889;50.084;8.646;2022-12-18T12:36:57;-3.30;99.90
54846;DHT22;53889;50.084;8.646;2022-12-18T12:39:31;-3.40;99.90
54846;DHT22;53889;50.084;8.646;2022-12-18T12:42:02;-3.40;99.90
54846;DHT22;53889;50.084;8.646;2022-12-18T12:44:51;-3.20;99.90
54846;DHT22;53889;50.084;8.646;2022-12-18T12:47:23;-3.20;99.90
54846;DHT22;53889;50.084;8.646;2022-12-18T12:49:52;-3.20;99.90
54846;DHT22;53889;50.084;8.646;2022-12-18T12:52:26;-3.20;99.90
54846;DHT22;53889;50.084;8.646;2022-12-18T12:54:55;-3.00;99.90
54846;DHT22;53889;50.084;8.646;2022-12-18T12:57:27;-3.00;99.90
54846;DHT22;53889;50.084;8.646;2022-12-18T13:00:02;-3.00;99.90
54846;DHT22;53889;50.084;8.646;2022-12-18T13:02:34;-3.00;99.90
54846;DHT22;53889;50.084;8.646;2022-12-18T13:05:06;-3.00;99.90
54846;DHT22;53889;50.084;8.646;2022-12-18T13:07:39;-3.00;99.90
54846;DHT22;53889;50.084;8.646;2022-12-18T13:10:13;-3.10;99.90
54846;DHT22;53889;50.084;8.646;2022-12-18T13:12:52;-3.20;99.90
54846;DHT22;53889;50.084;8.646;2022-12-18T13:15:24;-3.20;99.90
54846;DHT22;53889;50.084;8.646;2022-12-18T13:18:14;-3.10;99.90
54846;DHT22;53889;50.084;8.646;2022-12-18T13:20:43;-3.10;99.90
54846;DHT22;53889;50.084;8.646;2022-12-18T13:23:25;-3.10;99.90
54846;DHT22;53889;50.084;8.646;2022-12-18T13:25:53;-3.10;99.90
54846;DHT22;53889;50.084;8.646;2022-12-18T13:28:21;-3.10;99.90
54846;DHT22;53889;50.084;8.646;2022-12-18T13:30:53;-3.20;99.90
54846;DHT22;53889;50.084;8.646;2022-12-18T13:33:39;-3.20;99.90
54846;DHT22;53889;50.084;8.646;2022-12-18T13:36:30;-3.20;99.90
54846;DHT22;53889;50.084;8.646;2022-12-18T13:39:22;-3.10;99.90
54846;DHT22;53889;50.084;8.646;2022-12-18T13:41:50;-3.00;99.90
54846;DHT22;53889;50.084;8.646;2022-12-18T13:44:30;-2.90;99.90
54846;DHT22;53889;50.084;8.646;2022-12-18T13:46:59;-3.10;99.90
54846;DHT22;53889;50.084;8.646;2022-12-18T13:49:32;-3.10;99.90
54846;DHT22;53889;50.084;8.646;2022-12-18T13:52:03;-3.10;99.90
54846;DHT22;53889;50.084;8.646;2022-12-18T13:54:42;-3.10;99.90
54846;DHT22;53889;50.084;8.646;2022-12-18T13:57:25;-3.10;99.90
54846;DHT22;53889;50.084;8.646;2022-12-18T13:59:52;-3.20;99.90
54846;DHT22;53889;50.084;8.646;2022-12-18T14:02:23;-3.10;99.90
54846;DHT22;53889;50.084;8.646;2022-12-18T14:04:51;-3.20;99.90
54846;DHT22;53889;50.084;8.646;2022-12-18T14:07:21;-3.10;99.90
54846;DHT22;53889;50.084;8.646;2022-12-18T14:09:50;-3.10;99.90
54846;DHT22;53889;50.084;8.646;2022-12-18T14:12:20;-3.10;99.90
54846;DHT22;53889;50.084;8.646;2022-12-18T14:15:07;-3.10;99.90
54846;DHT22;53889;50.084;8.646;2022-12-18T14:17:42;-3.10;99.90
54846;DHT22;53889;50.084;8.646;2022-12-18T14:20:13;-3.10;99.90
54846;DHT22;53889;50.084;8.646;2022-12-18T14:22:43;-3.00;99.90
54846;DHT22;53889;50.084;8.646;2022-12-18T14:25:17;-3.00;99.90
54846;DHT22;53889;50.084;8.646;2022-12-18T14:27:46;-3.10;99.90
54846;DHT22;53889;50.084;8.646;2022-12-18T14:30:27;-3.10;99.90
54846;DHT22;53889;50.084;8.646;2022-12-18T14:33:03;-3.10;99.90
54846;DHT22;53889;50.084;8.646;2022-12-18T14:35:30;-3.00;99.90
54846;DHT22;53889;50.084;8.646;2022-12-18T14:38:10;-3.00;99.90
54846;DHT22;53889;50.084;8.646;2022-12-18T14:40:37;-3.00;99.90
54846;DHT22;53889;50.084;8.646;2022-12-18T14:43:04;-3.00;99.90
54846;DHT22;53889;50.084;8.646;2022-12-18T14:45:35;-3.00;99.90
54846;DHT22;53889;50.084;8.646;2022-12-18T14:48:13;-3.00;99.90
54846;DHT22;53889;50.084;8.646;2022-12-18T14:50:41;-3.00;99.90
54846;DHT22;53889;50.084;8.646;2022-12-18T14:53:19;-2.90;99.90
54846;DHT22;53889;50.084;8.646;2022-12-18T14:55:47;-2.90;99.90
54846;DHT22;53889;50.084;8.646;2022-12-18T14:58:15;-2.90;99.90
54846;DHT22;53889;50.084;8.646;2022-12-18T15:00:43;-3.00;99.90
54846;DHT22;53889;50.084;8.646;2022-12-18T15:03:14;-3.00;99.90
54846;DHT22;53889;50.084;8.646;2022-12-18T15:05:44;-3.00;99.90
54846;DHT22;53889;50.084;8.646;2022-12-18T15:08:30;-3.00;99.90
54846;DHT22;53889;50.084;8.646;2022-12-18T15:10:57;-3.00;99.90
54846;DHT22;53889;50.084;8.646;2022-12-18T15:13:24;-3.00;99.90
54846;DHT22;53889;50.084;8.646;2022-12-18T15:15:52;-3.00;99.90
54846;DHT22;53889;50.084;8.646;2022-12-18T15:18:22;-3.00;99.90
54846;DHT22;53889;50.084;8.646;2022-12-18T15:20:53;-3.00;99.90
54846;DHT22;53889;50.084;8.646;2022-12-18T15:23:21;-3.00;99.90
54846;DHT22;53889;50.084;8.646;2022-12-18T15:25:55;-3.00;99.90
54846;DHT22;53889;50.084;8.646;2022-12-18T15:28:24;-3.00;99.90
54846;DHT22;53889;50.084;8.646;2022-12-18T15:31:17;-3.00;99.90
54846;DHT22;53889;50.084;8.646;2022-12-18T15:34:09;-2.90;99.90
54846;DHT22;53889;50.084;8.646;2022-12-18T15:36:36;-3.00;99.90
54846;DHT22;53889;50.084;8.646;2022-12-18T15:39:04;-3.00;99.90
54846;DHT22;53889;50.084;8.646;2022-12-18T15:41:32;-3.00;99.90
54846;DHT22;53889;50.084;8.646;2022-12-18T15:44:00;-2.90;99.90
54846;DHT22;53889;50.084;8.646;2022-12-18T15:46:26;-3.00;99.90
54846;DHT22;53889;50.084;8.646;2022-12-18T15:48:55;-3.00;99.90
54846;DHT22;53889;50.084;8.646;2022-12-18T15:51:26;-3.10;99.90